sensor_id;sensor_type;location;lat;lon;timestamp;pressure;altitude;pressure_sealevel;temperature
50206;BMP280;36098;48.390;10.856;2023-06-10T00:00:39;95689.44;;;24.51
50206;BMP280;36098;48.390;10.856;2023-06-10T00:03:07;95692.00;;;24.37
50206;BMP280;36098;48.390;10.856;2023-06-10T00:05:34;95689.56;;;24.41
50206;BMP280;36098;48.390;10.856;2023-06-10T00:08:00;95680.88;;;24.40
50206;BMP280;36098;48.390;10.856;2023-06-10T00:10:26;95695.13;;;24.39
50206;BMP280;36098;48.390;10.856;2023-06-10T00:12:52;95687.81;;;24.36
50206;BMP280;36098;48.390;10.856;2023-06-10T00:15:17;95690.13;;;24.38
50206;BMP280;36098;48.390;10.856;2023-06-10T00:17:42;95696.72;;;24.40
50206;BMP280;36098;48.390;10.856;2023-06-10T00:20:09;95681.66;;;24.41
50206;BMP280;36098;48.390;10.856;2023-06-10T00:22:36;95693.56;;;24.38
50206;BMP280;36098;48.390;10.856;2023-06-10T00:25:03;95693.56;;;24.38
50206;BMP280;36098;48.390;10.856;2023-06-10T00:27:29;95692.28;;;24.36
50206;BMP280;36098;48.390;10.856;2023-06-10T00:30:03;95694.44;;;24.34
50206;BMP280;36098;48.390;10.856;2023-06-10T00:32:31;95693.34;;;24.35
50206;BMP280;36098;48.390;10.856;2023-06-10T00:34:56;95690.72;;;24.35
50206;BMP280;36098;48.390;10.856;2023-06-10T00:37:22;95697.69;;;24.44
50206;BMP280;36098;48.390;10.856;2023-06-10T00:39:47;95689.91;;;24.34
50206;BMP280;36098;48.390;10.856;2023-06-10T00:42:12;95697.06;;;24.34
50206;BMP280;36098;48.390;10.856;2023-06-10T00:44:38;95687.22;;;24.39
50206;BMP280;36098;48.390;10.856;2023-06-10T00:47:03;95693.63;;;24.33
50206;BMP280;36098;48.390;10.856;2023-06-10T00:49:29;95692.56;;;24.34
50206;BMP280;36098;48.390;10.856;2023-06-10T00:51:54;95674.78;;;24.40
50206;BMP280;36098;48.390;10.856;2023-06-10T00:54:19;95694.56;;;24.42
50206;BMP280;36098;48.390;10.856;2023-06-10T00:56:45;95690.72;;;24.35
50206;BMP280;36098;48.390;10.856;2023-06-10T00:59:12;95685.94;;;24.37
50206;BMP280;36098;48.390;10.856;2023-06-10T01:01:39;95692.13;;;24.27
50206;BMP280;36098;48.390;10.856;2023-06-10T01:04:04;95682.56;;;24.31
50206;BMP280;36098;48.390;10.856;2023-06-10T01:09:45;95690.00;;;24.29
50206;BMP280;36098;48.390;10.856;2023-06-10T01:12:29;95690.44;;;24.36
50206;BMP280;36098;48.390;10.856;2023-06-10T01:14:56;95684.16;;;24.32
50206;BMP280;36098;48.390;10.856;2023-06-10T01:17:21;95687.66;;;24.28
50206;BMP280;36098;48.390;10.856;2023-06-10T01:19:54;95689.41;;;24.32
50206;BMP280;36098;48.390;10.856;2023-06-10T01:22:20;95689.41;;;24.32
50206;BMP280;36098;48.390;10.856;2023-06-10T01:24:47;95692.00;;;24.37
50206;BMP280;36098;48.390;10.856;2023-06-10T01:27:17;95692.84;;;24.33
50206;BMP280;36098;48.390;10.856;2023-06-10T01:29:48;95688.44;;;24.28
50206;BMP280;36098;48.390;10.856;2023-06-10T01:32:29;95689.56;;;24.22
50206;BMP280;36098;48.390;10.856;2023-06-10T01:34:58;95694.50;;;24.29
50206;BMP280;36098;48.390;10.856;2023-06-10T01:37:26;95697.56;;;24.36
50206;BMP280;36098;48.390;10.856;2023-06-10T01:39:51;95687.94;;;24.26
50206;BMP280;36098;48.390;10.856;2023-06-10T01:42:17;95687.94;;;24.26
50206;BMP280;36098;48.390;10.856;2023-06-10T01:44:42;95694.00;;;24.27
50206;BMP280;36098;48.390;10.856;2023-06-10T01:47:08;95696.91;;;24.25
50206;BMP280;36098;48.390;10.856;2023-06-10T01:49:34;95694.06;;;24.22
50206;BMP280;36098;48.390;10.856;2023-06-10T01:51:59;95696.84;;;24.30
50206;BMP280;36098;48.390;10.856;2023-06-10T01:54:25;95695.75;;;24.31
50206;BMP280;36098;48.390;10.856;2023-06-10T01:56:51;95695.13;;;24.39
50206;BMP280;36098;48.390;10.856;2023-06-10T01:59:16;95704.13;;;24.38
50206;BMP280;36098;48.390;10.856;2023-06-10T02:01:42;95695.56;;;24.28
50206;BMP280;36098;48.390;10.856;2023-06-10T02:04:07;95697.41;;;24.27
50206;BMP280;36098;48.390;10.856;2023-06-10T02:06:32;95698.00;;;24.24
50206;BMP280;36098;48.390;10.856;2023-06-10T02:08:57;95706.41;;;24.26
50206;BMP280;36098;48.390;10.856;2023-06-10T02:11:23;95700.06;;;24.27
50206;BMP280;36098;48.390;10.856;2023-06-10T02:13:48;95700.06;;;24.27
50206;BMP280;36098;48.390;10.856;2023-06-10T02:16:13;95706.41;;;24.26
50206;BMP280;36098;48.390;10.856;2023-06-10T02:18:41;95700.78;;;24.33
50206;BMP280;36098;48.390;10.856;2023-06-10T02:21:08;95701.13;;;24.26
50206;BMP280;36098;48.390;10.856;2023-06-10T02:23:33;95700.91;;;24.23
50206;BMP280;36098;48.390;10.856;2023-06-10T02:25:59;95708.53;;;24.24
50206;BMP280;36098;48.390;10.856;2023-06-10T02:28:24;95712.25;;;24.23
50206;BMP280;36098;48.390;10.856;2023-06-10T02:30:51;95702.75;;;24.41
50206;BMP280;36098;48.390;10.856;2023-06-10T02:33:17;95714.47;;;24.35
50206;BMP280;36098;48.390;10.856;2023-06-10T02:35:42;95702.47;;;24.24
50206;BMP280;36098;48.390;10.856;2023-06-10T02:38:07;95704.00;;;24.30
50206;BMP280;36098;48.390;10.856;2023-06-10T02:40:33;95711.09;;;24.29
50206;BMP280;36098;48.390;10.856;2023-06-10T02:42:58;95713.16;;;24.32
50206;BMP280;36098;48.390;10.856;2023-06-10T02:45:23;95715.25;;;24.35
50206;BMP280;36098;48.390;10.856;2023-06-10T02:47:49;95712.66;;;24.30
50206;BMP280;36098;48.390;10.856;2023-06-10T02:50:14;95718.75;;;24.31
50206;BMP280;36098;48.390;10.856;2023-06-10T02:52:40;95715.03;;;24.32
50206;BMP280;36098;48.390;10.856;2023-06-10T02:55:05;95724.28;;;24.29
50206;BMP280;36098;48.390;10.856;2023-06-10T02:57:31;95717.81;;;24.22
50206;BMP280;36098;48.390;10.856;2023-06-10T02:59:56;95716.19;;;24.26
50206;BMP280;36098;48.390;10.856;2023-06-10T03:02:23;95719.00;;;24.29
50206;BMP280;36098;48.390;10.856;2023-06-10T03:04:55;95720.88;;;24.29
50206;BMP280;36098;48.390;10.856;2023-06-10T03:07:20;95714.31;;;24.26
50206;BMP280;36098;48.390;10.856;2023-06-10T03:09:46;95718.88;;;24.21
50206;BMP280;36098;48.390;10.856;2023-06-10T03:12:11;95719.00;;;24.29
50206;BMP280;36098;48.390;10.856;2023-06-10T03:14:36;95721.09;;;24.32
50206;BMP280;36098;48.390;10.856;2023-06-10T03:17:04;95719.97;;;24.38
50206;BMP280;36098;48.390;10.856;2023-06-10T03:19:30;95727.06;;;24.38
50206;BMP280;36098;48.390;10.856;2023-06-10T03:22:09;95727.44;;;24.31
50206;BMP280;36098;48.390;10.856;2023-06-10T03:24:35;95732.78;;;24.26
50206;BMP280;36098;48.390;10.856;2023-06-10T03:27:01;95729.00;;;24.32
50206;BMP280;36098;48.390;10.856;2023-06-10T03:29:27;95725.81;;;24.35
50206;BMP280;36098;48.390;10.856;2023-06-10T03:31:52;95737.47;;;24.29
50206;BMP280;36098;48.390;10.856;2023-06-10T03:34:17;95735.00;;;24.38
50206;BMP280;36098;48.390;10.856;2023-06-10T03:36:43;95734.44;;;24.41
50206;BMP280;36098;48.390;10.856;2023-06-10T03:39:08;95732.34;;;24.38
50206;BMP280;36098;48.390;10.856;2023-06-10T03:41:34;95738.72;;;24.37
50206;BMP280;36098;48.390;10.856;2023-06-10T03:43:59;95742.69;;;24.34
50206;BMP280;36098;48.390;10.856;2023-06-10T03:46:25;95740.69;;;24.26
50206;BMP280;36098;48.390;10.856;2023-06-10T03:48:51;95744.34;;;24.30
50206;BMP280;36098;48.390;10.856;2023-06-10T03:51:16;95743.75;;;24.33
50206;BMP280;36098;48.390;10.856;2023-06-10T03:53:41;95749.59;;;24.30
50206;BMP280;36098;48.390;10.856;2023-06-10T03:56:06;95758.47;;;24.39
50206;BMP280;36098;48.390;10.856;2023-06-10T03:58:32;95758.47;;;24.39
50206;BMP280;36098;48.390;10.856;2023-06-10T04:00:57;95753.78;;;24.36
50206;BMP280;36098;48.390;10.856;2023-06-10T04:03:22;95751.13;;;24.36
50206;BMP280;36098;48.390;10.856;2023-06-10T04:05:48;95756.19;;;24.33
50206;BMP280;36098;48.390;10.856;2023-06-10T04:08:13;95753.81;;;24.31
50206;BMP280;36098;48.390;10.856;2023-06-10T04:10:38;95764.66;;;24.30
50206;BMP280;36098;48.390;10.856;2023-06-10T04:13:03;95755.34;;;24.37
50206;BMP280;36098;48.390;10.856;2023-06-10T04:15:29;95762.22;;;24.33
50206;BMP280;36098;48.390;10.856;2023-06-10T04:17:57;95762.31;;;24.28
50206;BMP280;36098;48.390;10.856;2023-06-10T04:20:22;95760.16;;;24.30
50206;BMP280;36098;48.390;10.856;2023-06-10T04:22:48;95757.69;;;24.39
50206;BMP280;36098;48.390;10.856;2023-06-10T04:25:13;95758.25;;;24.36
50206;BMP280;36098;48.390;10.856;2023-06-10T04:27:39;95762.06;;;24.25
50206;BMP280;36098;48.390;10.856;2023-06-10T04:30:04;95762.31;;;24.28
50206;BMP280;36098;48.390;10.856;2023-06-10T04:32:30;95757.59;;;24.25
50206;BMP280;36098;48.390;10.856;2023-06-10T04:34:55;95756.31;;;24.23
50206;BMP280;36098;48.390;10.856;2023-06-10T04:37:21;95756.59;;;24.21
50206;BMP280;36098;48.390;10.856;2023-06-10T04:39:46;95765.50;;;24.25
50206;BMP280;36098;48.390;10.856;2023-06-10T04:42:11;95762.66;;;24.22
50206;BMP280;36098;48.390;10.856;2023-06-10T04:44:37;95774.56;;;24.19
50206;BMP280;36098;48.390;10.856;2023-06-10T04:47:02;95774.00;;;24.22
50206;BMP280;36098;48.390;10.856;2023-06-10T04:49:27;95777.47;;;24.18
50206;BMP280;36098;48.390;10.856;2023-06-10T04:51:53;95772.19;;;24.18
50206;BMP280;36098;48.390;10.856;2023-06-10T04:54:19;95779.03;;;24.19
50206;BMP280;36098;48.390;10.856;2023-06-10T04:56:44;95776.13;;;24.20
50206;BMP280;36098;48.390;10.856;2023-06-10T04:59:10;95782.75;;;24.18
50206;BMP280;36098;48.390;10.856;2023-06-10T05:01:35;95780.84;;;24.23
50206;BMP280;36098;48.390;10.856;2023-06-10T05:04:00;95783.56;;;24.18
50206;BMP280;36098;48.390;10.856;2023-06-10T05:06:25;95786.47;;;24.17
50206;BMP280;36098;48.390;10.856;2023-06-10T05:08:51;95788.94;;;24.08
50206;BMP280;36098;48.390;10.856;2023-06-10T05:11:16;95782.03;;;24.12
50206;BMP280;36098;48.390;10.856;2023-06-10T05:13:42;95789.94;;;24.12
50206;BMP280;36098;48.390;10.856;2023-06-10T05:16:08;95789.38;;;24.15
50206;BMP280;36098;48.390;10.856;2023-06-10T05:18:34;95798.00;;;24.21
50206;BMP280;36098;48.390;10.856;2023-06-10T05:21:00;95786.34;;;24.27
50206;BMP280;36098;48.390;10.856;2023-06-10T05:23:25;95781.53;;;24.10
50206;BMP280;36098;48.390;10.856;2023-06-10T05:25:51;95786.38;;;24.22
50206;BMP280;36098;48.390;10.856;2023-06-10T05:28:16;95788.75;;;24.23
50206;BMP280;36098;48.390;10.856;2023-06-10T05:30:41;95780.41;;;24.16
50206;BMP280;36098;48.390;10.856;2023-06-10T05:33:07;95785.63;;;24.21
50206;BMP280;36098;48.390;10.856;2023-06-10T05:35:32;95791.31;;;24.28
50206;BMP280;36098;48.390;10.856;2023-06-10T05:37:57;95801.16;;;24.23
50206;BMP280;36098;48.390;10.856;2023-06-10T05:40:22;95795.88;;;24.23
50206;BMP280;36098;48.390;10.856;2023-06-10T05:42:48;95787.47;;;24.21
50206;BMP280;36098;48.390;10.856;2023-06-10T05:45:13;95788.75;;;24.23
50206;BMP280;36098;48.390;10.856;2023-06-10T05:47:38;95793.81;;;24.20
50206;BMP280;36098;48.390;10.856;2023-06-10T05:50:04;95800.16;;;24.19
50206;BMP280;36098;48.390;10.856;2023-06-10T05:52:33;95803.50;;;24.24
50206;BMP280;36098;48.390;10.856;2023-06-10T05:54:58;95798.75;;;24.26
50206;BMP280;36098;48.390;10.856;2023-06-10T05:57:24;95801.16;;;24.23
50206;BMP280;36098;48.390;10.856;2023-06-10T05:59:49;95798.81;;;24.21
50206;BMP280;36098;48.390;10.856;2023-06-10T06:02:15;95795.66;;;24.19
50206;BMP280;36098;48.390;10.856;2023-06-10T06:04:40;95790.22;;;24.11
50206;BMP280;36098;48.390;10.856;2023-06-10T06:07:05;95796.00;;;24.13
50206;BMP280;36098;48.390;10.856;2023-06-10T06:09:30;95798.81;;;24.21
50206;BMP280;36098;48.390;10.856;2023-06-10T06:11:56;95798.81;;;24.21
50206;BMP280;36098;48.390;10.856;2023-06-10T06:14:21;95799.00;;;24.25
50206;BMP280;36098;48.390;10.856;2023-06-10T06:16:46;95804.09;;;24.21
50206;BMP280;36098;48.390;10.856;2023-06-10T06:19:11;95792.88;;;24.11
50206;BMP280;36098;48.390;10.856;2023-06-10T06:21:37;95788.03;;;24.18
50206;BMP280;36098;48.390;10.856;2023-06-10T06:24:02;95787.25;;;24.17
50206;BMP280;36098;48.390;10.856;2023-06-10T06:26:27;95794.44;;;24.12
50206;BMP280;36098;48.390;10.856;2023-06-10T06:28:52;95794.59;;;24.20
50206;BMP280;36098;48.390;10.856;2023-06-10T06:31:18;95794.44;;;24.12
50206;BMP280;36098;48.390;10.856;2023-06-10T06:33:43;95796.50;;;24.15
50206;BMP280;36098;48.390;10.856;2023-06-10T06:36:08;95804.66;;;24.18
50206;BMP280;36098;48.390;10.856;2023-06-10T06:38:34;95801.53;;;24.16
50206;BMP280;36098;48.390;10.856;2023-06-10T06:40:59;95806.22;;;24.19
50206;BMP280;36098;48.390;10.856;2023-06-10T06:43:29;95799.16;;;24.15
50206;BMP280;36098;48.390;10.856;2023-06-10T06:45:56;95800.94;;;24.19
50206;BMP280;36098;48.390;10.856;2023-06-10T06:48:21;95811.50;;;24.19
50206;BMP280;36098;48.390;10.856;2023-06-10T06:50:47;95806.22;;;24.19
50206;BMP280;36098;48.390;10.856;2023-06-10T06:53:12;95807.84;;;24.15
50206;BMP280;36098;48.390;10.856;2023-06-10T06:55:37;95807.00;;;24.20
50206;BMP280;36098;48.390;10.856;2023-06-10T06:58:02;95814.13;;;24.19
50206;BMP280;36098;48.390;10.856;2023-06-10T07:00:29;95811.94;;;24.26
50206;BMP280;36098;48.390;10.856;2023-06-10T07:02:54;95813.00;;;24.25
50206;BMP280;36098;48.390;10.856;2023-06-10T07:05:20;95812.28;;;24.20
50206;BMP280;36098;48.390;10.856;2023-06-10T07:07:45;95811.44;;;24.24
50206;BMP280;36098;48.390;10.856;2023-06-10T07:10:11;95822.06;;;24.19
50206;BMP280;36098;48.390;10.856;2023-06-10T07:12:36;95816.53;;;24.16
50206;BMP280;36098;48.390;10.856;2023-06-10T07:15:01;95817.28;;;24.21
50206;BMP280;36098;48.390;10.856;2023-06-10T07:17:27;95827.34;;;24.19
50206;BMP280;36098;48.390;10.856;2023-06-10T07:19:52;95819.13;;;24.21
50206;BMP280;36098;48.390;10.856;2023-06-10T07:22:17;95823.00;;;24.28
50206;BMP280;36098;48.390;10.856;2023-06-10T07:24:43;95815.06;;;24.28
50206;BMP280;36098;48.390;10.856;2023-06-10T07:27:08;95821.56;;;24.17
50206;BMP280;36098;48.390;10.856;2023-06-10T07:29:34;95819.06;;;24.26
50206;BMP280;36098;48.390;10.856;2023-06-10T07:32:02;95823.06;;;24.23
50206;BMP280;36098;48.390;10.856;2023-06-10T07:34:27;95817.78;;;24.23
50206;BMP280;36098;48.390;10.856;2023-06-10T07:36:52;95810.94;;;24.22
50206;BMP280;36098;48.390;10.856;2023-06-10T07:39:17;95816.78;;;24.19
50206;BMP280;36098;48.390;10.856;2023-06-10T07:41:43;95812.22;;;24.25
50206;BMP280;36098;48.390;10.856;2023-06-10T07:44:08;95815.53;;;24.12
50206;BMP280;36098;48.390;10.856;2023-06-10T07:46:33;95817.84;;;24.18
50206;BMP280;36098;48.390;10.856;2023-06-10T07:48:58;95800.16;;;24.19
50206;BMP280;36098;48.390;10.856;2023-06-10T07:51:24;95807.13;;;24.10
50206;BMP280;36098;48.390;10.856;2023-06-10T07:53:49;95807.56;;;24.17
50206;BMP280;36098;48.390;10.856;2023-06-10T07:56:15;95813.63;;;24.17
50206;BMP280;36098;48.390;10.856;2023-06-10T07:58:40;95817.38;;;24.11
50206;BMP280;36098;48.390;10.856;2023-06-10T08:01:05;95811.53;;;24.14
50206;BMP280;36098;48.390;10.856;2023-06-10T08:03:30;95806.78;;;24.16
50206;BMP280;36098;48.390;10.856;2023-06-10T08:05:56;95812.84;;;24.17
50206;BMP280;36098;48.390;10.856;2023-06-10T08:08:21;95808.69;;;24.11
50206;BMP280;36098;48.390;10.856;2023-06-10T08:10:46;95809.75;;;24.10
50206;BMP280;36098;48.390;10.856;2023-06-10T08:13:11;95805.19;;;24.15
50206;BMP280;36098;48.390;10.856;2023-06-10T08:15:37;95806.56;;;24.13
50206;BMP280;36098;48.390;10.856;2023-06-10T08:18:02;95804.19;;;24.11
50206;BMP280;36098;48.390;10.856;2023-06-10T08:20:27;95800.84;;;24.06
50206;BMP280;36098;48.390;10.856;2023-06-10T08:22:53;95802.50;;;24.20
50206;BMP280;36098;48.390;10.856;2023-06-10T08:25:18;95807.00;;;24.20
50206;BMP280;36098;48.390;10.856;2023-06-10T08:27:43;95799.38;;;24.18
50206;BMP280;36098;48.390;10.856;2023-06-10T08:30:09;95805.19;;;24.15
50206;BMP280;36098;48.390;10.856;2023-06-10T08:32:36;95812.84;;;24.17
50206;BMP280;36098;48.390;10.856;2023-06-10T08:35:01;95804.66;;;24.18
50206;BMP280;36098;48.390;10.856;2023-06-10T08:37:26;95805.75;;;24.12
50206;BMP280;36098;48.390;10.856;2023-06-10T08:39:51;95807.00;;;24.20
50206;BMP280;36098;48.390;10.856;2023-06-10T08:44:54;95812.50;;;24.23
50206;BMP280;36098;48.390;10.856;2023-06-10T08:47:22;95809.13;;;24.18
50206;BMP280;36098;48.390;10.856;2023-06-10T08:49:48;95806.56;;;24.13
50206;BMP280;36098;48.390;10.856;2023-06-10T08:52:16;95800.44;;;24.17
50206;BMP280;36098;48.390;10.856;2023-06-10T08:54:52;95803.00;;;24.22
50206;BMP280;36098;48.390;10.856;2023-06-10T08:57:18;95800.81;;;24.29
50206;BMP280;36098;48.390;10.856;2023-06-10T08:59:46;95802.19;;;24.27
50206;BMP280;36098;48.390;10.856;2023-06-10T09:02:11;95797.41;;;24.29
50206;BMP280;36098;48.390;10.856;2023-06-10T09:04:38;95795.53;;;24.29
50206;BMP280;36098;48.390;10.856;2023-06-10T09:07:04;95793.06;;;24.38
50206;BMP280;36098;48.390;10.856;2023-06-10T09:09:30;95800.47;;;24.36
50206;BMP280;36098;48.390;10.856;2023-06-10T09:11:56;95799.41;;;24.37
50206;BMP280;36098;48.390;10.856;2023-06-10T09:14:21;95793.28;;;24.41
50206;BMP280;36098;48.390;10.856;2023-06-10T09:16:46;95797.75;;;24.41
50206;BMP280;36098;48.390;10.856;2023-06-10T09:19:14;95801.28;;;24.36
50206;BMP280;36098;48.390;10.856;2023-06-10T09:21:40;95804.25;;;24.48
50206;BMP280;36098;48.390;10.856;2023-06-10T09:24:06;95788.91;;;24.50
50206;BMP280;36098;48.390;10.856;2023-06-10T09:26:31;95804.19;;;24.58
50206;BMP280;36098;48.390;10.856;2023-06-10T09:29:03;95804.75;;;24.55
50206;BMP280;36098;48.390;10.856;2023-06-10T09:31:30;95789.44;;;24.52
50206;BMP280;36098;48.390;10.856;2023-06-10T09:34:12;95801.13;;;24.46
50206;BMP280;36098;48.390;10.856;2023-06-10T09:36:38;95798.75;;;24.45
50206;BMP280;36098;48.390;10.856;2023-06-10T09:39:04;95800.56;;;24.49
50206;BMP280;36098;48.390;10.856;2023-06-10T09:41:33;95798.22;;;24.48
50206;BMP280;36098;48.390;10.856;2023-06-10T09:43:59;95803.69;;;24.56
50206;BMP280;36098;48.390;10.856;2023-06-10T09:46:30;95805.34;;;24.47
50206;BMP280;36098;48.390;10.856;2023-06-10T09:48:57;95803.03;;;24.41
50206;BMP280;36098;48.390;10.856;2023-06-10T09:51:22;95797.75;;;24.41
50206;BMP280;36098;48.390;10.856;2023-06-10T09:53:49;95808.13;;;24.37
50206;BMP280;36098;48.390;10.856;2023-06-10T09:56:15;95810.25;;;24.35
50206;BMP280;36098;48.390;10.856;2023-06-10T09:58:41;95806.00;;;24.34
50206;BMP280;36098;48.390;10.856;2023-06-10T10:01:09;95802.34;;;24.35
50206;BMP280;36098;48.390;10.856;2023-06-10T10:03:46;95802.09;;;24.32
50206;BMP280;36098;48.390;10.856;2023-06-10T10:06:12;95812.38;;;24.33
50206;BMP280;36098;48.390;10.856;2023-06-10T10:08:38;95799.28;;;24.47
50206;BMP280;36098;48.390;10.856;2023-06-10T10:11:03;95799.66;;;24.59
50206;BMP280;36098;48.390;10.856;2023-06-10T10:13:28;95791.03;;;24.53
50206;BMP280;36098;48.390;10.856;2023-06-10T10:15:56;95790.13;;;24.39
50206;BMP280;36098;48.390;10.856;2023-06-10T10:18:25;95804.91;;;24.40
50206;BMP280;36098;48.390;10.856;2023-06-10T10:20:55;95795.28;;;24.49
50206;BMP280;36098;48.390;10.856;2023-06-10T10:23:31;95792.59;;;24.54
50206;BMP280;36098;48.390;10.856;2023-06-10T10:26:00;95796.28;;;24.53
50206;BMP280;36098;48.390;10.856;2023-06-10T10:28:32;95794.19;;;24.55
50206;BMP280;36098;48.390;10.856;2023-06-10T10:31:08;95798.44;;;24.51
50206;BMP280;36098;48.390;10.856;2023-06-10T10:33:44;95798.22;;;24.48
50206;BMP280;36098;48.390;10.856;2023-06-10T10:36:11;95798.47;;;24.46
50206;BMP280;36098;48.390;10.856;2023-06-10T10:38:37;95795.28;;;24.49
50206;BMP280;36098;48.390;10.856;2023-06-10T10:41:04;95792.13;;;24.47
50206;BMP280;36098;48.390;10.856;2023-06-10T10:43:30;95797.00;;;24.40
50206;BMP280;36098;48.390;10.856;2023-06-10T10:46:08;95804.91;;;24.40
50206;BMP280;36098;48.390;10.856;2023-06-10T10:48:38;95788.50;;;24.43
50206;BMP280;36098;48.390;10.856;2023-06-10T10:51:03;95786.28;;;24.50
50206;BMP280;36098;48.390;10.856;2023-06-10T10:53:29;95787.44;;;24.44
50206;BMP280;36098;48.390;10.856;2023-06-10T10:55:58;95793.66;;;24.53
50206;BMP280;36098;48.390;10.856;2023-06-10T10:58:24;95795.19;;;24.59
50206;BMP280;36098;48.390;10.856;2023-06-10T11:00:50;95792.53;;;24.59
50206;BMP280;36098;48.390;10.856;2023-06-10T11:03:16;95786.38;;;24.64
50206;BMP280;36098;48.390;10.856;2023-06-10T11:05:48;95790.25;;;24.53
50206;BMP280;36098;48.390;10.856;2023-06-10T11:10:57;95777.63;;;24.68
50206;BMP280;36098;48.390;10.856;2023-06-10T11:13:22;95781.06;;;24.69
50206;BMP280;36098;48.390;10.856;2023-06-10T11:15:50;95777.78;;;24.58
50206;BMP280;36098;48.390;10.856;2023-06-10T11:18:26;95780.84;;;24.65
50206;BMP280;36098;48.390;10.856;2023-06-10T11:20:57;95778.69;;;24.67
50206;BMP280;36098;48.390;10.856;2023-06-10T11:26:17;95792.84;;;24.76
50206;BMP280;36098;48.390;10.856;2023-06-10T11:31:21;95784.53;;;24.83
50206;BMP280;36098;48.390;10.856;2023-06-10T11:33:47;95792.31;;;24.74
50206;BMP280;36098;48.390;10.856;2023-06-10T11:36:13;95788.97;;;24.69
50206;BMP280;36098;48.390;10.856;2023-06-10T11:38:38;95790.25;;;24.71
50206;BMP280;36098;48.390;10.856;2023-06-10T11:41:04;95782.69;;;24.65
50206;BMP280;36098;48.390;10.856;2023-06-10T11:43:29;95779.75;;;24.66
50206;BMP280;36098;48.390;10.856;2023-06-10T11:45:55;95782.41;;;24.66
50206;BMP280;36098;48.390;10.856;2023-06-10T11:48:21;95779.91;;;24.75
50206;BMP280;36098;48.390;10.856;2023-06-10T11:50:46;95780.81;;;24.84
50206;BMP280;36098;48.390;10.856;2023-06-10T11:53:11;95791.19;;;24.80
50206;BMP280;36098;48.390;10.856;2023-06-10T11:58:05;95789.63;;;24.79
50206;BMP280;36098;48.390;10.856;2023-06-10T12:00:44;95784.34;;;24.79
50206;BMP280;36098;48.390;10.856;2023-06-10T12:03:09;95781.53;;;24.89
50206;BMP280;36098;48.390;10.856;2023-06-10T12:05:35;95780.09;;;24.97
50206;BMP280;36098;48.390;10.856;2023-06-10T12:08:11;95783.91;;;24.91
50206;BMP280;36098;48.390;10.856;2023-06-10T12:10:41;95788.31;;;24.95
50206;BMP280;36098;48.390;10.856;2023-06-10T12:13:08;95786.75;;;24.94
50206;BMP280;36098;48.390;10.856;2023-06-10T12:15:33;95793.03;;;24.98
50206;BMP280;36098;48.390;10.856;2023-06-10T12:17:59;95777.81;;;24.90
50206;BMP280;36098;48.390;10.856;2023-06-10T12:20:28;95789.94;;;24.91
50206;BMP280;36098;48.390;10.856;2023-06-10T12:22:54;95773.59;;;25.08
50206;BMP280;36098;48.390;10.856;2023-06-10T12:25:24;95775.44;;;25.07
50206;BMP280;36098;48.390;10.856;2023-06-10T12:27:51;95779.06;;;25.11
50206;BMP280;36098;48.390;10.856;2023-06-10T12:30:22;95775.28;;;25.17
50206;BMP280;36098;48.390;10.856;2023-06-10T12:32:49;95776.16;;;25.13
50206;BMP280;36098;48.390;10.856;2023-06-10T12:35:19;95772.94;;;25.15
50206;BMP280;36098;48.390;10.856;2023-06-10T12:37:59;95772.72;;;25.12
50206;BMP280;36098;48.390;10.856;2023-06-10T12:40:27;95773.34;;;25.22
50206;BMP280;36098;48.390;10.856;2023-06-10T12:42:54;95759.72;;;25.15
50206;BMP280;36098;48.390;10.856;2023-06-10T12:45:30;95762.13;;;25.12
50206;BMP280;36098;48.390;10.856;2023-06-10T12:48:10;95767.72;;;25.11
50206;BMP280;36098;48.390;10.856;2023-06-10T12:50:40;95755.69;;;25.05
50206;BMP280;36098;48.390;10.856;2023-06-10T12:53:06;95757.25;;;25.06
50206;BMP280;36098;48.390;10.856;2023-06-10T12:55:32;95758.44;;;25.13
50206;BMP280;36098;48.390;10.856;2023-06-10T12:57:58;95753.13;;;25.13
50206;BMP280;36098;48.390;10.856;2023-06-10T13:00:24;95753.09;;;25.00
50206;BMP280;36098;48.390;10.856;2023-06-10T13:02:54;95752.34;;;24.99
50206;BMP280;36098;48.390;10.856;2023-06-10T13:05:20;95749.25;;;25.11
50206;BMP280;36098;48.390;10.856;2023-06-10T13:07:46;95738.25;;;25.04
50206;BMP280;36098;48.390;10.856;2023-06-10T13:10:13;95749.78;;;24.94
50206;BMP280;36098;48.390;10.856;2023-06-10T13:12:39;95741.47;;;25.01
50206;BMP280;36098;48.390;10.856;2023-06-10T13:15:04;95745.31;;;25.08
50206;BMP280;36098;48.390;10.856;2023-06-10T13:17:30;95737.38;;;25.08
50206;BMP280;36098;48.390;10.856;2023-06-10T13:19:55;95742.97;;;25.07
50206;BMP280;36098;48.390;10.856;2023-06-10T13:22:20;95740.69;;;25.00
50206;BMP280;36098;48.390;10.856;2023-06-10T13:24:46;95745.22;;;25.13
50206;BMP280;36098;48.390;10.856;2023-06-10T13:27:11;95746.22;;;24.85
50206;BMP280;36098;48.390;10.856;2023-06-10T13:29:39;95747.00;;;24.86
50206;BMP280;36098;48.390;10.856;2023-06-10T13:32:04;95745.53;;;24.93
50206;BMP280;36098;48.390;10.856;2023-06-10T13:34:29;95748.44;;;25.10
50206;BMP280;36098;48.390;10.856;2023-06-10T13:36:55;95746.56;;;24.97
50206;BMP280;36098;48.390;10.856;2023-06-10T13:39:20;95741.78;;;24.99
50206;BMP280;36098;48.390;10.856;2023-06-10T13:41:45;95747.56;;;25.14
50206;BMP280;36098;48.390;10.856;2023-06-10T13:44:11;95742.16;;;25.06
50206;BMP280;36098;48.390;10.856;2023-06-10T13:46:36;95735.16;;;25.15
50206;BMP280;36098;48.390;10.856;2023-06-10T13:49:01;95743.97;;;25.11
50206;BMP280;36098;48.390;10.856;2023-06-10T13:51:26;95734.34;;;25.01
50206;BMP280;36098;48.390;10.856;2023-06-10T13:53:52;95733.66;;;24.77
50206;BMP280;36098;48.390;10.856;2023-06-10T13:56:18;95735.03;;;24.75
50206;BMP280;36098;48.390;10.856;2023-06-10T13:58:43;95748.78;;;24.53
50206;BMP280;36098;48.390;10.856;2023-06-10T14:01:08;95737.00;;;24.83
50206;BMP280;36098;48.390;10.856;2023-06-10T14:03:34;95732.44;;;24.88
50206;BMP280;36098;48.390;10.856;2023-06-10T14:05:59;95728.66;;;24.94
50206;BMP280;36098;48.390;10.856;2023-06-10T14:08:24;95742.81;;;24.66